Time;durP1;ratioP1;P1;durP2;ratioP2;P2;SDS_P1;SDS_P2;PMS_P1;PMS_P2;Temp;Humidity;BMP_temperature;BMP_pressure;BME280_temperature;BME280_humidity;BME280_pressure;Samples;Min_cycle;Max_cycle;Signal;HPM_P1;HPM_P2
2021/05/17 00:00:48;;;;;;;15.40;12.63;;;;;;;13.85;82.72;97242.72;4949832;28;20638;-76
2021/05/17 00:03:13;;;;;;;15.48;12.88;;;;;;;13.83;82.66;97234.28;4978206;28;20073;-77
2021/05/17 00:05:39;;;;;;;15.15;12.32;;;;;;;13.87;83.24;97239.91;4958021;28;20672;-77
2021/05/17 00:08:05;;;;;;;13.68;11.80;;;;;;;13.82;82.62;97230.88;4968336;28;20674;-77
2021/05/17 00:10:32;;;;;;;14.23;12.05;;;;;;;13.84;82.67;97239.31;4950990;28;20030;-77
2021/05/17 00:12:58;;;;;;;15.40;11.63;;;;;;;13.97;82.74;97237.72;4965808;28;20084;-77
2021/05/17 00:15:24;;;;;;;14.02;11.60;;;;;;;13.98;82.44;97242.75;4964717;28;20041;-77
2021/05/17 00:17:51;;;;;;;13.18;11.00;;;;;;;14.04;81.51;97230.69;4964416;28;20038;-76
2021/05/17 00:20:18;;;;;;;12.43;10.68;;;;;;;14.01;80.83;97220.63;4958972;28;20041;-76
2021/05/17 00:22:44;;;;;;;10.77;9.65;;;;;;;13.98;80.22;97216.63;4962436;28;20034;-78
2021/05/17 00:25:11;;;;;;;12.20;9.40;;;;;;;14.05;79.84;97227.06;4965523;28;20035;-77
2021/05/17 00:27:36;;;;;;;13.88;9.43;;;;;;;14.06;79.49;97239.16;4949210;28;20053;-78
2021/05/17 00:30:05;;;;;;;9.10;7.82;;;;;;;13.94;78.84;97222.44;4973759;28;20552;-77
2021/05/17 00:32:30;;;;;;;9.98;8.20;;;;;;;13.99;78.55;97246.16;4965862;28;20655;-76
2021/05/17 00:34:56;;;;;;;11.15;8.15;;;;;;;13.89;78.23;97236.13;4968695;28;20057;-77
2021/05/17 00:37:22;;;;;;;9.00;7.32;;;;;;;13.91;77.64;97236.72;4965354;28;20054;-76
2021/05/17 00:39:48;;;;;;;10.55;7.45;;;;;;;13.93;77.91;97246.97;4967104;28;20638;-78
2021/05/17 00:42:14;;;;;;;9.38;6.97;;;;;;;13.90;78.24;97250.78;4984176;28;20026;-75
2021/05/17 00:44:41;;;;;;;8.02;6.38;;;;;;;13.93;77.88;97255.63;4965500;28;20026;-78
2021/05/17 00:47:14;;;;;;;9.93;6.60;;;;;;;13.96;78.00;97255.22;4982450;28;20076;-77
2021/05/17 00:49:41;;;;;;;10.13;6.82;;;;;;;13.89;77.76;97246.56;4975831;28;20117;-77
2021/05/17 00:52:09;;;;;;;8.18;5.70;;;;;;;13.98;77.64;97255.00;4965533;28;20041;-76
2021/05/17 00:54:34;;;;;;;8.27;6.30;;;;;;;13.99;77.71;97261.84;4970321;28;20106;-75
2021/05/17 00:57:00;;;;;;;8.55;5.72;;;;;;;13.99;77.50;97249.59;4956299;28;20121;-76
2021/05/17 00:59:26;;;;;;;9.23;5.68;;;;;;;13.94;77.60;97254.59;4970714;28;20018;-76
2021/05/17 01:01:52;;;;;;;9.00;5.82;;;;;;;13.89;77.84;97253.59;4962737;28;20029;-77
2021/05/17 01:04:17;;;;;;;7.97;5.88;;;;;;;13.82;77.93;97241.31;4966169;28;20713;-76
2021/05/17 01:06:51;;;;;;;8.13;5.95;;;;;;;13.82;77.67;97245.75;4945865;28;20089;-77
2021/05/17 01:09:16;;;;;;;8.50;6.18;;;;;;;13.88;77.72;97257.22;4969766;28;20061;-76
2021/05/17 01:11:42;;;;;;;8.00;6.00;;;;;;;13.71;77.74;97234.06;4951571;28;20030;-77
2021/05/17 01:14:08;;;;;;;7.97;6.35;;;;;;;13.78;77.50;97237.50;4973089;28;20027;-77
2021/05/17 01:16:34;;;;;;;9.10;6.18;;;;;;;13.88;77.31;97244.94;4981829;28;20674;-77
2021/05/17 01:19:00;;;;;;;7.75;5.45;;;;;;;13.94;76.79;97249.38;4981077;28;20053;-76
2021/05/17 01:21:30;;;;;;;9.15;6.15;;;;;;;13.80;77.41;97250.38;4957584;28;20120;-76
2021/05/17 01:23:55;;;;;;;8.02;5.55;;;;;;;13.78;77.16;97247.13;4977994;28;20147;-76
2021/05/17 01:26:29;;;;;;;7.68;5.55;;;;;;;13.68;77.35;97238.91;4963709;28;20030;-75
2021/05/17 01:29:06;;;;;;;9.63;5.60;;;;;;;13.68;77.54;97251.94;4969935;28;20038;-76
2021/05/17 01:31:32;;;;;;;6.82;5.22;;;;;;;13.68;77.13;97239.69;4969555;28;20252;-76
2021/05/17 01:33:58;;;;;;;6.93;4.45;;;;;;;13.65;76.87;97247.91;4966834;28;20030;-76
2021/05/17 01:36:24;;;;;;;6.10;4.32;;;;;;;13.48;77.00;97234.41;4968689;28;20018;-76
2021/05/17 01:38:54;;;;;;;9.50;3.90;;;;;;;13.58;76.31;97237.47;4972778;28;20033;-75
2021/05/17 01:41:22;;;;;;;6.07;3.83;;;;;;;13.63;75.57;97239.47;4964616;28;20066;-76
2021/05/17 01:43:54;;;;;;;6.07;3.33;;;;;;;13.57;75.80;97233.22;4954051;28;20947;-76
2021/05/17 01:46:27;;;;;;;5.57;3.13;;;;;;;13.69;75.30;97241.31;4978530;28;20026;-76
2021/05/17 01:48:57;;;;;;;6.10;3.05;;;;;;;13.57;75.55;97248.91;4966125;28;20814;-76
2021/05/17 01:51:23;;;;;;;8.00;3.10;;;;;;;13.59;75.28;97246.09;4967653;28;20030;-77
2021/05/17 01:53:50;;;;;;;5.35;2.78;;;;;;;13.39;75.52;97238.22;4967870;28;20121;-75
2021/05/17 01:56:17;;;;;;;4.97;2.60;;;;;;;13.50;75.03;97247.28;4949720;28;20113;-76
2021/05/17 01:58:43;;;;;;;3.88;2.22;;;;;;;13.23;74.97;97211.44;4982856;28;20045;-76
2021/05/17 02:01:11;;;;;;;4.32;2.33;;;;;;;13.51;74.98;97254.91;4965711;28;20023;-75
2021/05/17 02:03:39;;;;;;;4.63;2.40;;;;;;;13.49;75.24;97251.72;4961688;28;20029;-75
2021/05/17 02:06:06;;;;;;;4.00;2.20;;;;;;;13.41;75.38;97255.28;4964446;28;20153;-75
2021/05/17 02:08:33;;;;;;;5.50;2.53;;;;;;;13.40;75.63;97260.72;4964473;28;21154;-76
2021/05/17 02:10:59;;;;;;;5.25;2.45;;;;;;;13.48;75.17;97262.34;4964201;28;20054;-76
2021/05/17 02:13:27;;;;;;;4.63;2.00;;;;;;;13.40;75.07;97256.28;4965873;28;20034;-75
2021/05/17 02:15:52;;;;;;;4.18;2.00;;;;;;;13.35;75.10;97263.91;4979574;28;20141;-76
2021/05/17 02:18:18;;;;;;;4.68;2.17;;;;;;;13.29;74.83;97259.44;4967912;28;20030;-77
2021/05/17 02:20:44;;;;;;;4.80;2.53;;;;;;;13.24;75.06;97246.94;4966052;28;20053;-76
2021/05/17 02:23:15;;;;;;;5.63;2.70;;;;;;;13.27;75.34;97256.22;4966624;28;20026;-76
2021/05/17 02:25:47;;;;;;;4.63;2.70;;;;;;;13.28;75.44;97263.84;4966943;28;20752;-76
2021/05/17 02:28:12;;;;;;;5.07;2.50;;;;;;;13.26;75.63;97257.22;4952495;28;20034;-77
2021/05/17 02:30:39;;;;;;;5.40;2.50;;;;;;;13.23;75.21;97245.38;4961540;28;20029;-76
2021/05/17 02:33:05;;;;;;;5.35;2.10;;;;;;;13.13;74.84;97224.03;4964782;28;20777;-76
2021/05/17 02:35:31;;;;;;;4.25;2.30;;;;;;;13.24;74.73;97246.16;4966476;28;20113;-76
2021/05/17 02:37:57;;;;;;;6.25;2.40;;;;;;;13.15;74.71;97240.28;4967589;28;20034;-76
2021/05/17 02:40:23;;;;;;;4.22;2.00;;;;;;;13.19;74.33;97240.72;4980598;28;20823;-77
2021/05/17 02:42:50;;;;;;;5.18;2.10;;;;;;;13.21;74.38;97256.97;4965035;28;20030;-76
2021/05/17 02:45:18;;;;;;;4.13;1.92;;;;;;;13.26;74.27;97255.41;4959668;28;20598;-76
2021/05/17 02:47:44;;;;;;;4.13;2.00;;;;;;;13.27;74.26;97257.03;4969607;28;20092;-75
2021/05/17 02:50:12;;;;;;;4.22;2.10;;;;;;;13.27;73.84;97257.03;4968491;28;20034;-77
2021/05/17 02:52:38;;;;;;;5.50;2.08;;;;;;;13.23;74.12;97265.41;4966253;28;20057;-76
2021/05/17 02:55:09;;;;;;;4.20;1.92;;;;;;;13.01;74.20;97236.00;4983462;28;20379;-76
2021/05/17 02:57:45;;;;;;;4.25;1.92;;;;;;;13.25;73.91;97261.63;4970647;28;20113;-75
2021/05/17 03:00:17;;;;;;;5.25;1.80;;;;;;;13.22;74.06;97263.81;4969948;28;20946;-75
2021/05/17 03:02:54;;;;;;;4.07;1.77;;;;;;;13.15;74.16;97263.78;4969129;28;20622;-77
2021/05/17 03:05:20;;;;;;;3.70;1.45;;;;;;;13.11;73.76;97265.19;4948137;28;20041;-76
2021/05/17 03:07:48;;;;;;;3.35;1.50;;;;;;;13.02;73.86;97255.91;4984823;28;20130;-75
2021/05/17 03:10:14;;;;;;;3.90;1.60;;;;;;;13.01;74.17;97249.06;4969242;28;20026;-77
2021/05/17 03:12:40;;;;;;;3.03;1.33;;;;;;;13.15;74.12;97262.97;4980713;28;20117;-76
2021/05/17 03:15:06;;;;;;;3.30;1.23;;;;;;;13.12;73.46;97269.38;4952406;28;20145;-77
2021/05/17 03:17:32;;;;;;;3.30;1.10;;;;;;;12.96;73.01;97254.88;4965584;28;20125;-75
2021/05/17 03:19:57;;;;;;;3.47;1.20;;;;;;;12.94;72.60;97272.53;4987089;28;20115;-76
2021/05/17 03:22:23;;;;;;;6.18;1.15;;;;;;;12.99;72.79;97277.94;4970670;28;20038;-76
2021/05/17 03:24:51;;;;;;;3.38;1.10;;;;;;;12.90;72.90;97279.09;4970339;28;20030;-75
2021/05/17 03:27:22;;;;;;;3.75;1.00;;;;;;;13.00;71.94;97273.56;4987124;28;20120;-76
2021/05/17 03:29:51;;;;;;;3.70;1.10;;;;;;;12.92;71.78;97284.13;4958197;28;20030;-75
2021/05/17 03:32:17;;;;;;;2.70;0.90;;;;;;;12.66;72.88;97272.53;4976972;28;20030;-76
2021/05/17 03:34:43;;;;;;;3.53;1.13;;;;;;;12.63;73.55;97301.59;4978256;28;20030;-76
2021/05/17 03:37:09;;;;;;;2.38;0.88;;;;;;;12.44;72.20;97288.22;4979104;28;20072;-75
2021/05/17 03:39:34;;;;;;;2.17;0.70;;;;;;;12.52;71.08;97296.91;4981372;28;20041;-74
2021/05/17 03:42:00;;;;;;;3.50;0.80;;;;;;;12.61;71.47;97303.59;4976770;28;20477;-75
2021/05/17 03:44:26;;;;;;;4.60;0.95;;;;;;;12.61;71.77;97311.41;4982603;28;20619;-75
2021/05/17 03:46:52;;;;;;;2.65;0.90;;;;;;;12.63;72.49;97325.06;4979854;28;20096;-75
2021/05/17 03:49:17;;;;;;;4.40;1.15;;;;;;;12.57;71.82;97308.38;4981925;28;20035;-75
2021/05/17 03:51:43;;;;;;;3.30;1.00;;;;;;;12.55;71.24;97331.22;4966144;28;20096;-75
2021/05/17 03:54:08;;;;;;;4.70;1.30;;;;;;;12.68;70.65;97326.09;4983315;28;20027;-75
2021/05/17 03:56:34;;;;;;;3.40;1.20;;;;;;;12.63;70.01;97314.63;4975219;28;20503;-74
2021/05/17 03:58:59;;;;;;;3.60;0.90;;;;;;;12.71;69.82;97319.72;4979148;28;20535;-74
2021/05/17 04:01:25;;;;;;;3.20;1.10;;;;;;;12.79;69.26;97323.97;4995120;28;20062;-75
2021/05/17 04:03:53;;;;;;;6.72;1.33;;;;;;;12.74;68.68;97327.19;4977018;28;20065;-75
2021/05/17 04:06:25;;;;;;;3.05;1.10;;;;;;;12.44;68.35;97280.41;4987383;28;20034;-75
2021/05/17 04:14:18;;;;;;;3.72;1.10;;;;;;;12.57;68.64;97321.41;4983351;28;20076;-75
2021/05/17 04:16:44;;;;;;;3.83;1.08;;;;;;;12.75;68.37;97333.97;4976865;28;20077;-75
2021/05/17 04:19:11;;;;;;;3.22;1.00;;;;;;;12.72;67.33;97344.00;4977255;28;20042;-75
2021/05/17 04:21:37;;;;;;;2.47;0.80;;;;;;;12.76;66.94;97353.88;4979655;28;20041;-76
2021/05/17 04:24:03;;;;;;;2.28;0.80;;;;;;;12.82;65.75;97347.09;4998132;28;20506;-75
2021/05/17 04:26:28;;;;;;;2.53;0.93;;;;;;;12.77;65.72;97332.00;4974598;28;20033;-75
2021/05/17 04:28:54;;;;;;;2.70;1.00;;;;;;;12.66;64.96;97337.72;4979388;28;20050;-74
2021/05/17 04:31:19;;;;;;;2.75;0.90;;;;;;;12.79;64.70;97363.09;4984011;28;20058;-74
2021/05/17 04:33:45;;;;;;;1.83;0.68;;;;;;;12.44;62.70;97327.31;4999445;28;20038;-74
2021/05/17 04:36:10;;;;;;;2.35;0.80;;;;;;;12.69;63.01;97366.06;5000276;28;20031;-74
2021/05/17 04:38:36;;;;;;;4.28;0.90;;;;;;;12.59;63.02;97371.56;4978911;28;20121;-74
2021/05/17 04:41:01;;;;;;;2.83;0.90;;;;;;;12.47;61.20;97379.09;4991638;28;20034;-74
2021/05/17 04:43:27;;;;;;;2.95;0.75;;;;;;;12.35;60.58;97361.53;4988892;28;20546;-74
2021/05/17 04:45:52;;;;;;;3.10;0.60;;;;;;;12.31;62.00;97351.47;4982666;28;20673;-73
2021/05/17 04:48:18;;;;;;;3.08;0.70;;;;;;;12.47;61.01;97370.47;4980796;28;20030;-73
2021/05/17 04:50:44;;;;;;;1.85;0.60;;;;;;;12.36;60.41;97379.59;4980691;28;20034;-73
2021/05/17 04:53:09;;;;;;;2.92;0.70;;;;;;;12.47;60.28;97380.91;4993623;28;20031;-74
2021/05/17 04:55:35;;;;;;;2.72;0.80;;;;;;;12.28;61.35;97372.72;4980054;28;20508;-74
2021/05/17 04:58:01;;;;;;;2.20;0.73;;;;;;;12.02;61.40;97372.44;4986326;28;20080;-73
2021/05/17 05:00:27;;;;;;;2.78;0.70;;;;;;;12.25;60.70;97396.53;4981935;28;20698;-77
2021/05/17 05:02:53;;;;;;;2.22;0.73;;;;;;;12.26;61.36;97405.16;4962910;28;20114;-75
2021/05/17 05:05:19;;;;;;;4.22;0.82;;;;;;;12.25;61.07;97385.31;4973482;28;20030;-76
2021/05/17 05:07:46;;;;;;;2.15;0.70;;;;;;;12.28;61.63;97405.78;4980132;28;20035;-75
2021/05/17 05:10:11;;;;;;;2.55;0.60;;;;;;;12.35;62.26;97398.81;4997329;28;20113;-73
2021/05/17 05:12:37;;;;;;;2.17;0.70;;;;;;;12.49;62.39;97405.78;4985075;28;20076;-76
2021/05/17 05:15:05;;;;;;;1.77;0.70;;;;;;;12.56;61.72;97405.03;4981902;28;20043;-75
2021/05/17 05:17:31;;;;;;;4.57;0.82;;;;;;;12.47;61.33;97404.38;4981909;28;20128;-75
2021/05/17 05:19:57;;;;;;;3.40;0.80;;;;;;;12.21;62.33;97397.06;4980530;28;20520;-78
2021/05/17 05:22:24;;;;;;;2.15;0.70;;;;;;;12.14;61.35;97397.03;4970221;28;20080;-75
2021/05/17 05:24:50;;;;;;;2.50;0.60;;;;;;;12.11;61.36;97400.78;4977181;28;20048;-75
2021/05/17 05:30:06;;;;;;;2.47;0.70;;;;;;;12.17;59.42;97424.50;4986793;28;20045;-76
2021/05/17 05:32:38;;;;;;;2.50;0.70;;;;;;;12.13;58.78;97420.66;4983945;28;20030;-76
2021/05/17 05:35:04;;;;;;;1.90;0.43;;;;;;;12.29;58.30;97436.06;4986235;28;20373;-76
2021/05/17 05:37:29;;;;;;;6.53;1.05;;;;;;;12.25;58.76;97425.19;4985367;28;20057;-74
2021/05/17 05:39:55;;;;;;;1.95;0.50;;;;;;;12.52;58.32;97437.69;4983022;28;20395;-76
2021/05/17 05:42:20;;;;;;;2.30;0.70;;;;;;;12.64;58.89;97442.22;4984398;28;20037;-73
2021/05/17 05:44:48;;;;;;;2.25;0.70;;;;;;;12.47;59.41;97431.25;4981198;28;20069;-74
2021/05/17 05:47:16;;;;;;;2.20;0.70;;;;;;;12.48;59.72;97430.25;4983862;28;20551;-74
2021/05/17 05:49:47;;;;;;;3.72;0.80;;;;;;;12.47;59.33;97439.06;4996321;28;20485;-73
2021/05/17 05:52:12;;;;;;;2.97;0.80;;;;;;;12.31;58.98;97424.44;4981766;28;20031;-74
2021/05/17 05:54:38;;;;;;;3.67;1.00;;;;;;;12.28;58.84;97439.66;4981622;28;20029;-75
2021/05/17 05:57:06;;;;;;;2.42;0.70;;;;;;;12.21;58.06;97428.34;5001658;28;20053;-73
2021/05/17 05:59:31;;;;;;;2.90;0.80;;;;;;;12.48;57.97;97450.28;4981597;28;20034;-75
2021/05/17 06:01:57;;;;;;;3.13;0.80;;;;;;;12.57;57.37;97449.19;4974882;28;20018;-75
2021/05/17 06:04:22;;;;;;;3.45;0.80;;;;;;;12.68;56.30;97445.25;4992351;28;20026;-74
2021/05/17 06:06:48;;;;;;;5.05;0.70;;;;;;;12.73;54.75;97453.34;4978554;28;20041;-74
2021/05/17 06:09:14;;;;;;;3.30;0.65;;;;;;;12.75;54.94;97450.56;4985027;28;20553;-74
2021/05/17 06:11:39;;;;;;;2.15;0.57;;;;;;;12.73;53.15;97445.53;4983887;28;20023;-75
2021/05/17 06:14:06;;;;;;;2.17;0.70;;;;;;;12.80;52.57;97451.59;4985826;28;20343;-75
2021/05/17 06:16:34;;;;;;;3.60;0.90;;;;;;;12.85;51.88;97443.19;4991111;28;20080;-78
2021/05/17 06:19:00;;;;;;;3.67;0.80;;;;;;;12.98;50.67;97439.94;4989075;28;20057;-73
2021/05/17 06:21:27;;;;;;;7.15;1.70;;;;;;;12.89;51.41;97432.22;4988728;28;20028;-72
2021/05/17 06:23:53;;;;;;;2.85;0.80;;;;;;;12.93;51.29;97445.69;4982044;28;20097;-73
2021/05/17 06:26:19;;;;;;;7.60;1.10;;;;;;;12.89;50.00;97431.41;4999359;28;20022;-73
2021/05/17 06:28:45;;;;;;;6.78;0.95;;;;;;;13.16;49.27;97439.44;4984116;28;20063;-73
2021/05/17 06:31:12;;;;;;;1.85;0.60;;;;;;;13.05;48.76;97440.75;4973228;28;20033;-73
2021/05/17 06:33:41;;;;;;;4.68;0.70;;;;;;;13.02;49.07;97434.13;4987804;28;20026;-73
2021/05/17 06:36:10;;;;;;;2.40;0.70;;;;;;;13.13;48.71;97442.44;4985503;28;20476;-73
2021/05/17 06:38:39;;;;;;;6.07;0.90;;;;;;;13.05;47.96;97425.94;5000813;28;20057;-72
2021/05/17 06:41:04;;;;;;;4.78;1.50;;;;;;;13.16;48.67;97445.50;5000599;28;20036;-73
2021/05/17 06:43:31;;;;;;;6.47;1.20;;;;;;;13.18;47.17;97445.28;5001377;28;20117;-73
2021/05/17 06:45:57;;;;;;;7.43;0.90;;;;;;;13.03;46.69;97434.94;4996118;28;20069;-74
2021/05/17 06:48:23;;;;;;;6.75;1.10;;;;;;;13.03;48.82;97453.19;5006779;28;20431;-72
2021/05/17 06:50:48;;;;;;;7.18;1.40;;;;;;;12.99;47.92;97431.09;4974149;28;20033;-72
2021/05/17 06:53:14;;;;;;;6.78;1.50;;;;;;;13.13;49.80;97435.41;5014072;28;20022;-78
2021/05/17 06:56:25;;;;;;;3.67;0.85;;;;;;;13.26;48.69;97455.59;5005356;28;20023;-74
2021/05/17 06:58:35;;;;;;;8.02;1.17;;;;;;;13.28;48.36;97456.19;5005202;28;20038;-73
2021/05/17 07:01:01;;;;;;;3.88;0.80;;;;;;;13.32;47.91;97462.69;4982259;28;20030;-74
2021/05/17 07:03:27;;;;;;;3.55;0.90;;;;;;;13.27;46.90;97444.97;5001669;28;20034;-74
2021/05/17 07:05:55;;;;;;;3.13;0.60;;;;;;;13.27;44.75;97455.41;4988974;28;20022;-74
2021/05/17 07:13:50;;;;;;;3.60;0.80;;;;;;;13.35;44.73;97462.31;5018555;28;20049;-74
2021/05/17 07:16:15;;;;;;;2.72;0.43;;;;;;;13.31;43.67;97450.63;5004808;28;20017;-75
2021/05/17 07:18:40;;;;;;;9.10;0.82;;;;;;;13.42;43.61;97457.94;5016173;28;20034;-76
2021/05/17 07:23:39;;;;;;;2.17;0.40;;;;;;;13.46;42.42;97464.38;5020079;28;20026;-75
2021/05/17 07:26:07;;;;;;;5.03;0.80;;;;;;;13.71;40.90;97470.94;4993682;28;20018;-76
2021/05/17 07:28:33;;;;;;;2.90;0.43;;;;;;;13.88;39.49;97461.03;5000133;28;20491;-76
2021/05/17 07:31:02;;;;;;;1.35;0.40;;;;;;;13.79;40.85;97447.31;4984973;28;20129;-76
2021/05/17 07:33:28;;;;;;;2.92;0.50;;;;;;;13.91;40.47;97477.13;4965752;28;20036;-73
2021/05/17 07:35:53;;;;;;;2.38;0.57;;;;;;;13.86;42.28;97479.50;4989698;28;20027;-73
2021/05/17 07:38:22;;;;;;;2.40;0.60;;;;;;;13.84;42.12;97474.47;4994044;28;20497;-74
2021/05/17 07:40:47;;;;;;;2.20;0.50;;;;;;;13.69;42.73;97458.13;4982109;28;20053;-71
2021/05/17 07:43:13;;;;;;;1.73;0.40;;;;;;;13.79;40.59;97473.44;4982977;28;20109;-71
2021/05/17 07:45:38;;;;;;;2.30;0.50;;;;;;;13.93;41.85;97466.47;4980300;28;20026;-73
2021/05/17 07:48:05;;;;;;;1.48;0.30;;;;;;;14.23;41.57;97488.69;4984620;28;20670;-73
2021/05/17 07:50:30;;;;;;;2.25;0.50;;;;;;;14.51;41.45;97477.34;5000386;28;20029;-73
2021/05/17 07:52:56;;;;;;;1.45;0.30;;;;;;;14.75;40.73;97489.09;4995669;28;20046;-73
2021/05/17 07:55:24;;;;;;;2.30;0.40;;;;;;;15.03;38.48;97495.16;4982620;28;20031;-74
2021/05/17 07:57:49;;;;;;;2.10;0.50;;;;;;;15.19;39.15;97486.91;4995706;28;20022;-73
2021/05/17 08:00:15;;;;;;;4.00;0.50;;;;;;;15.33;39.05;97485.91;4984937;28;20045;-74
2021/05/17 08:02:40;;;;;;;2.63;0.40;;;;;;;15.54;36.80;97490.09;4979793;28;20049;-72
2021/05/17 08:05:06;;;;;;;2.65;0.52;;;;;;;15.78;36.07;97492.31;4984708;28;20554;-73
2021/05/17 08:07:33;;;;;;;2.13;0.60;;;;;;;16.05;35.77;97490.44;4983392;28;20026;-73
2021/05/17 08:09:59;;;;;;;3.30;0.50;;;;;;;16.28;35.33;97487.31;4979184;28;20048;-73
2021/05/17 08:12:24;;;;;;;1.80;0.40;;;;;;;16.50;31.54;97480.75;4982697;28;20117;-73
2021/05/17 08:14:50;;;;;;;2.83;0.50;;;;;;;16.68;33.26;97474.81;4984255;28;20053;-73
2021/05/17 08:17:15;;;;;;;2.45;0.55;;;;;;;16.82;34.11;97478.13;4978960;28;20057;-72
2021/05/17 08:19:41;;;;;;;3.30;0.45;;;;;;;17.03;33.02;97476.19;4982451;28;20026;-73
2021/05/17 08:22:07;;;;;;;2.50;0.70;;;;;;;17.23;33.65;97482.13;4999230;28;20137;-72
2021/05/17 08:24:32;;;;;;;1.75;0.52;;;;;;;17.03;32.03;97487.53;4979583;28;20388;-73
2021/05/17 08:26:59;;;;;;;2.67;0.47;;;;;;;17.15;33.12;97494.72;4977939;28;20030;-73
2021/05/17 08:29:31;;;;;;;1.48;0.40;;;;;;;17.36;32.86;97480.38;4953399;28;20485;-73
2021/05/17 08:31:57;;;;;;;4.60;1.05;;;;;;;17.48;32.45;97474.19;4978022;28;20037;-73
2021/05/17 08:34:22;;;;;;;2.05;0.50;;;;;;;17.64;31.14;97472.84;4995785;28;20026;-72
2021/05/17 08:36:48;;;;;;;1.50;0.30;;;;;;;17.63;30.88;97466.00;4979783;28;20054;-72
2021/05/17 08:39:13;;;;;;;1.75;0.35;;;;;;;17.77;30.65;97479.00;4981526;28;20030;-73
2021/05/17 08:41:39;;;;;;;1.58;0.50;;;;;;;17.84;29.76;97475.25;4990965;28;20030;-72
2021/05/17 08:44:05;;;;;;;1.48;0.30;;;;;;;17.80;29.27;97466.22;4980291;28;20061;-73
2021/05/17 08:46:30;;;;;;;0.95;0.30;;;;;;;17.93;28.07;97465.28;4978793;28;20022;-72
2021/05/17 08:48:56;;;;;;;2.20;0.30;;;;;;;17.97;27.46;97494.59;4978922;28;20478;-72
2021/05/17 08:51:24;;;;;;;5.28;0.45;;;;;;;18.05;29.32;97500.34;4982573;28;20542;-73
2021/05/17 08:53:51;;;;;;;2.20;0.50;;;;;;;18.19;29.62;97487.84;4981993;28;20030;-73
2021/05/17 08:56:18;;;;;;;4.78;0.77;;;;;;;18.36;31.86;97495.13;4986240;28;20407;-73
2021/05/17 08:58:43;;;;;;;1.48;0.40;;;;;;;18.38;27.79;97479.91;4985050;28;20089;-72
2021/05/17 09:01:09;;;;;;;2.85;0.40;;;;;;;18.40;29.66;97473.41;4982074;28;20076;-71
2021/05/17 09:03:34;;;;;;;2.25;0.50;;;;;;;18.53;27.89;97488.22;4980593;28;20042;-72
2021/05/17 09:06:07;;;;;;;5.05;1.00;;;;;;;18.74;27.60;97491.38;5000124;28;20022;-72
2021/05/17 09:08:43;;;;;;;2.28;0.40;;;;;;;18.87;28.64;97487.78;5002199;28;20030;-72
2021/05/17 09:11:09;;;;;;;1.40;0.32;;;;;;;18.86;25.10;97481.72;4984205;28;20030;-73
2021/05/17 09:13:34;;;;;;;3.63;0.38;;;;;;;19.01;25.38;97494.47;4984651;28;20038;-72
2021/05/17 09:16:00;;;;;;;1.58;0.38;;;;;;;19.04;25.03;97494.03;4984824;28;20076;-72
2021/05/17 09:18:28;;;;;;;2.65;0.40;;;;;;;19.14;24.42;97488.19;4982439;28;20153;-72
2021/05/17 09:20:55;;;;;;;1.85;0.32;;;;;;;19.10;24.44;97487.03;5001634;28;20603;-72
2021/05/17 09:23:23;;;;;;;1.58;0.30;;;;;;;19.28;26.06;97491.44;4983216;28;20030;-72
2021/05/17 09:26:00;;;;;;;1.00;0.20;;;;;;;19.38;25.55;97492.47;4984089;28;20751;-72
2021/05/17 09:28:28;;;;;;;1.42;0.45;;;;;;;19.48;26.53;97504.28;4981602;28;20026;-72
2021/05/17 09:31:08;;;;;;;0.82;0.20;;;;;;;19.40;27.24;97502.75;4979925;28;20038;-73
2021/05/17 09:33:52;;;;;;;1.10;0.28;;;;;;;19.63;26.42;97512.50;4982833;28;20045;-74
2021/05/17 09:36:26;;;;;;;2.22;0.50;;;;;;;19.68;26.69;97511.84;4971351;28;20041;-73
2021/05/17 09:38:59;;;;;;;1.20;0.30;;;;;;;19.80;25.51;97515.28;5000284;28;20158;-73
2021/05/17 09:41:41;;;;;;;2.45;0.52;;;;;;;19.89;27.03;97503.34;4985056;28;20483;-73
2021/05/17 09:44:08;;;;;;;1.42;0.40;;;;;;;20.11;23.96;97510.66;4984916;28;20033;-74
2021/05/17 09:47:14;;;;;;;3.65;0.60;;;;;;;20.28;23.65;97511.53;4984151;28;20097;-73
2021/05/17 09:49:50;;;;;;;1.45;0.40;;;;;;;20.40;21.95;97500.94;4939673;29;20035;-72
2021/05/17 09:52:25;;;;;;;1.95;0.40;;;;;;;20.46;24.98;97504.47;4923486;29;20031;-74
2021/05/17 09:54:58;;;;;;;2.95;0.70;;;;;;;20.55;22.82;97509.16;4979155;28;20040;-74
2021/05/17 09:57:31;;;;;;;2.03;0.40;;;;;;;20.58;24.88;97510.50;5014027;28;20038;-73
2021/05/17 10:00:27;;;;;;;1.77;0.30;;;;;;;20.67;24.33;97510.97;4986724;28;20923;-74
2021/05/17 10:02:54;;;;;;;0.98;0.30;;;;;;;20.64;21.91;97511.44;4996372;28;20050;-73
2021/05/17 10:05:45;;;;;;;1.02;0.30;;;;;;;20.68;24.17;97523.94;4987537;28;20455;-74
2021/05/17 10:08:12;;;;;;;0.82;0.20;;;;;;;20.75;24.60;97521.16;4992294;28;20038;-75
2021/05/17 10:10:38;;;;;;;2.08;0.40;;;;;;;20.67;20.39;97514.41;4984768;28;20447;-73
2021/05/17 10:13:05;;;;;;;1.58;0.40;;;;;;;20.87;20.34;97521.09;4983466;28;20018;-75
2021/05/17 10:15:33;;;;;;;1.15;0.30;;;;;;;20.95;22.91;97519.91;4999587;28;20061;-69
2021/05/17 10:17:59;;;;;;;3.60;0.52;;;;;;;20.95;28.00;97496.91;4988094;28;20065;-73
2021/05/17 10:20:25;;;;;;;4.40;1.73;;;;;;;21.02;28.77;97504.72;4980660;28;20026;-72
2021/05/17 10:22:52;;;;;;;5.15;1.20;;;;;;;21.11;22.67;97512.00;4991319;28;20034;-73
2021/05/17 10:25:29;;;;;;;2.92;1.00;;;;;;;21.06;27.87;97503.19;4987916;28;20062;-72
2021/05/17 10:28:08;;;;;;;1.95;0.40;;;;;;;20.97;20.25;97481.63;4986585;28;20054;-75
2021/05/17 10:30:35;;;;;;;6.55;1.05;;;;;;;21.19;20.79;97518.75;4984793;28;20438;-74
2021/05/17 10:33:13;;;;;;;18.30;5.25;;;;;;;21.26;22.54;97529.94;4982293;28;20034;-73
2021/05/17 10:35:41;;;;;;;15.98;4.75;;;;;;;21.31;21.53;97524.72;4998864;28;20060;-72
2021/05/17 10:38:28;;;;;;;6.95;2.60;;;;;;;21.37;23.75;97525.63;4984685;28;20030;-74
2021/05/17 10:43:59;;;;;;;6.50;2.30;;;;;;;21.53;24.48;97525.91;4985713;28;20046;-78
2021/05/17 10:46:41;;;;;;;5.50;1.75;;;;;;;21.54;24.24;97514.25;4983913;28;20057;-77
2021/05/17 10:49:35;;;;;;;4.70;1.00;;;;;;;21.77;24.77;97534.44;4984609;28;20030;-75
2021/05/17 10:52:03;;;;;;;4.32;1.52;;;;;;;21.89;23.09;97537.78;5001261;28;20710;-77
2021/05/17 10:54:31;;;;;;;3.63;0.90;;;;;;;21.84;20.83;97525.28;4985147;28;20885;-75
2021/05/17 10:57:02;;;;;;;1.77;0.40;;;;;;;21.67;22.33;97522.66;4981229;28;20053;-76
2021/05/17 11:02:26;;;;;;;1.70;0.47;;;;;;;21.44;23.69;97531.53;4984759;28;20037;-72
2021/05/17 11:04:57;;;;;;;1.02;0.35;;;;;;;21.59;25.20;97535.50;4976484;28;20038;-72
2021/05/17 11:07:25;;;;;;;4.15;0.80;;;;;;;21.70;24.36;97545.19;4980411;28;20026;-71
2021/05/17 11:10:17;;;;;;;5.85;1.20;;;;;;;21.74;29.59;97548.13;4977592;28;20033;-72
2021/05/17 11:12:44;;;;;;;5.40;0.65;;;;;;;21.79;30.32;97542.94;4979905;28;20038;-73
2021/05/17 11:15:15;;;;;;;13.73;4.22;;;;;;;21.90;25.44;97544.66;4980638;28;20100;-73
2021/05/17 11:18:06;;;;;;;15.02;7.38;;;;;;;21.98;25.29;97538.19;4978817;28;20054;-73
2021/05/17 11:20:44;;;;;;;11.23;3.50;;;;;;;21.91;23.31;97548.13;4999288;28;20452;-74
2021/05/17 11:23:14;;;;;;;34.88;17.48;;;;;;;21.87;21.19;97545.19;4985436;28;20113;-74
2021/05/17 11:25:50;;;;;;;37.22;19.65;;;;;;;21.63;20.86;97549.84;4978844;28;20480;-75
2021/05/17 11:28:18;;;;;;;22.13;9.32;;;;;;;21.87;20.28;97532.75;4972318;28;20031;-75
2021/05/17 11:30:45;;;;;;;8.95;2.85;;;;;;;21.64;17.27;97539.00;4983509;28;20042;-75
2021/05/17 11:33:18;;;;;;;56.58;24.30;;;;;;;21.85;18.76;97534.81;4971194;28;20125;-76
2021/05/17 11:36:09;;;;;;;79.63;35.22;;;;;;;22.04;19.63;97537.19;4981550;28;20050;-76
2021/05/17 11:38:34;;;;;;;87.53;26.55;;;;;;;22.10;20.77;97536.19;4985820;28;20112;-75
2021/05/17 11:41:00;;;;;;;56.30;17.92;;;;;;;22.03;19.90;97528.47;4968130;28;20515;-76
2021/05/17 11:43:26;;;;;;;11.75;3.22;;;;;;;21.72;21.85;97534.34;4983102;28;20117;-75
2021/05/17 11:45:52;;;;;;;36.50;5.47;;;;;;;21.55;20.75;97545.75;4996261;28;20027;-74
2021/05/17 11:48:17;;;;;;;32.17;4.32;;;;;;;21.71;21.37;97540.72;4980788;28;20473;-73
2021/05/17 11:50:44;;;;;;;11.20;4.53;;;;;;;21.68;19.61;97536.69;4990366;28;20030;-75
2021/05/17 11:53:16;;;;;;;6.82;2.88;;;;;;;21.37;18.04;97530.91;4984555;28;20419;-75
2021/05/17 11:55:46;;;;;;;5.18;2.00;;;;;;;21.59;20.13;97538.13;4986632;28;20704;-75
2021/05/17 11:58:12;;;;;;;6.75;3.10;;;;;;;21.75;19.26;97525.94;4983118;28;20332;-75